sensor_id;sensor_type;location;lat;lon;timestamp;P1;durP1;ratioP1;P2;durP2;ratioP2
23304;SDS011;11821;51.456;8.844;2022-09-09T00:06:28;1.60;;;0.70;;
23304;SDS011;11821;51.456;8.844;2022-09-09T00:11:36;0.70;;;0.50;;
23304;SDS011;11821;51.456;8.844;2022-09-09T00:16:54;3.73;;;0.50;;
23304;SDS011;11821;51.456;8.844;2022-09-09T00:24:45;9.77;;;0.85;;
23304;SDS011;11821;51.456;8.844;2022-09-09T00:27:21;3.78;;;0.90;;
23304;SDS011;11821;51.456;8.844;2022-09-09T00:30:11;2.88;;;0.52;;
23304;SDS011;11821;51.456;8.844;2022-09-09T00:32:48;2.75;;;0.85;;
23304;SDS011;11821;51.456;8.844;2022-09-09T00:35:38;2.17;;;0.75;;
23304;SDS011;11821;51.456;8.844;2022-09-09T00:38:14;1.25;;;0.60;;
23304;SDS011;11821;51.456;8.844;2022-09-09T00:40:55;1.33;;;0.60;;
23304;SDS011;11821;51.456;8.844;2022-09-09T00:43:29;1.35;;;0.63;;
23304;SDS011;11821;51.456;8.844;2022-09-09T00:48:56;6.20;;;0.70;;
23304;SDS011;11821;51.456;8.844;2022-09-09T00:54:20;2.72;;;0.80;;
23304;SDS011;11821;51.456;8.844;2022-09-09T00:57:25;3.67;;;0.80;;
23304;SDS011;11821;51.456;8.844;2022-09-09T00:59:46;1.75;;;0.80;;
23304;SDS011;11821;51.456;8.844;2022-09-09T01:02:27;3.72;;;0.77;;
23304;SDS011;11821;51.456;8.844;2022-09-09T01:05:02;1.50;;;0.60;;
23304;SDS011;11821;51.456;8.844;2022-09-09T01:07:47;2.53;;;0.90;;
23304;SDS011;11821;51.456;8.844;2022-09-09T01:10:21;1.88;;;0.75;;
23304;SDS011;11821;51.456;8.844;2022-09-09T01:12:56;2.67;;;0.90;;
23304;SDS011;11821;51.456;8.844;2022-09-09T01:15:28;3.13;;;0.90;;
23304;SDS011;11821;51.456;8.844;2022-09-09T01:20:29;1.40;;;0.60;;
23304;SDS011;11821;51.456;8.844;2022-09-09T01:23:15;1.83;;;0.73;;
23304;SDS011;11821;51.456;8.844;2022-09-09T01:28:52;5.05;;;0.90;;
23304;SDS011;11821;51.456;8.844;2022-09-09T01:31:22;2.55;;;1.20;;
23304;SDS011;11821;51.456;8.844;2022-09-09T01:33:53;1.65;;;0.80;;
23304;SDS011;11821;51.456;8.844;2022-09-09T01:36:23;4.13;;;0.95;;
23304;SDS011;11821;51.456;8.844;2022-09-09T01:38:58;0.73;;;0.60;;
23304;SDS011;11821;51.456;8.844;2022-09-09T01:41:25;1.58;;;0.95;;
23304;SDS011;11821;51.456;8.844;2022-09-09T01:44:12;1.70;;;1.00;;
23304;SDS011;11821;51.456;8.844;2022-09-09T01:46:42;2.92;;;1.00;;
23304;SDS011;11821;51.456;8.844;2022-09-09T01:49:14;1.88;;;0.85;;
23304;SDS011;11821;51.456;8.844;2022-09-09T01:51:42;2.92;;;0.65;;
23304;SDS011;11821;51.456;8.844;2022-09-09T01:54:13;3.05;;;0.85;;
23304;SDS011;11821;51.456;8.844;2022-09-09T02:02:19;2.63;;;1.50;;
23304;SDS011;11821;51.456;8.844;2022-09-09T02:05:24;1.60;;;0.80;;
23304;SDS011;11821;51.456;8.844;2022-09-09T02:08:07;1.70;;;1.10;;
23304;SDS011;11821;51.456;8.844;2022-09-09T02:13:36;3.10;;;0.90;;
23304;SDS011;11821;51.456;8.844;2022-09-09T02:16:13;1.67;;;0.70;;
23304;SDS011;11821;51.456;8.844;2022-09-09T02:18:51;3.92;;;0.80;;
23304;SDS011;11821;51.456;8.844;2022-09-09T02:21:32;1.90;;;0.75;;
23304;SDS011;11821;51.456;8.844;2022-09-09T02:24:04;2.55;;;0.80;;
23304;SDS011;11821;51.456;8.844;2022-09-09T02:26:39;4.53;;;0.88;;
23304;SDS011;11821;51.456;8.844;2022-09-09T02:29:09;3.00;;;1.27;;
23304;SDS011;11821;51.456;8.844;2022-09-09T02:31:41;1.63;;;0.93;;
23304;SDS011;11821;51.456;8.844;2022-09-09T02:34:14;6.35;;;1.90;;
23304;SDS011;11821;51.456;8.844;2022-09-09T02:36:43;2.50;;;0.93;;
23304;SDS011;11821;51.456;8.844;2022-09-09T02:39:12;2.20;;;0.80;;
23304;SDS011;11821;51.456;8.844;2022-09-09T02:41:40;1.38;;;0.95;;
23304;SDS011;11821;51.456;8.844;2022-09-09T02:44:11;2.65;;;0.75;;
23304;SDS011;11821;51.456;8.844;2022-09-09T02:52:45;5.00;;;0.95;;
23304;SDS011;11821;51.456;8.844;2022-09-09T02:55:45;3.05;;;1.10;;
23304;SDS011;11821;51.456;8.844;2022-09-09T02:58:15;2.40;;;1.00;;
23304;SDS011;11821;51.456;8.844;2022-09-09T03:00:48;1.33;;;0.90;;
23304;SDS011;11821;51.456;8.844;2022-09-09T03:03:15;1.98;;;0.80;;
23304;SDS011;11821;51.456;8.844;2022-09-09T03:05:43;4.32;;;1.05;;
23304;SDS011;11821;51.456;8.844;2022-09-09T03:08:11;2.58;;;1.00;;
23304;SDS011;11821;51.456;8.844;2022-09-09T03:10:39;4.70;;;1.17;;
23304;SDS011;11821;51.456;8.844;2022-09-09T03:13:06;2.60;;;1.10;;
23304;SDS011;11821;51.456;8.844;2022-09-09T03:15:37;2.20;;;1.15;;
23304;SDS011;11821;51.456;8.844;2022-09-09T03:18:04;3.53;;;1.40;;
23304;SDS011;11821;51.456;8.844;2022-09-09T03:20:33;1.92;;;1.17;;
23304;SDS011;11821;51.456;8.844;2022-09-09T03:22:59;3.30;;;1.00;;
23304;SDS011;11821;51.456;8.844;2022-09-09T03:25:25;2.28;;;1.50;;
23304;SDS011;11821;51.456;8.844;2022-09-09T03:27:53;3.60;;;1.88;;
23304;SDS011;11821;51.456;8.844;2022-09-09T03:30:22;3.35;;;0.95;;
23304;SDS011;11821;51.456;8.844;2022-09-09T03:32:49;5.53;;;1.38;;
23304;SDS011;11821;51.456;8.844;2022-09-09T03:35:16;1.63;;;0.88;;
23304;SDS011;11821;51.456;8.844;2022-09-09T03:37:43;1.88;;;0.93;;
23304;SDS011;11821;51.456;8.844;2022-09-09T03:40:11;5.00;;;1.20;;
23304;SDS011;11821;51.456;8.844;2022-09-09T03:42:38;1.70;;;0.95;;
23304;SDS011;11821;51.456;8.844;2022-09-09T03:45:06;2.85;;;1.50;;
23304;SDS011;11821;51.456;8.844;2022-09-09T03:47:35;3.97;;;1.08;;
23304;SDS011;11821;51.456;8.844;2022-09-09T03:50:05;3.50;;;1.40;;
23304;SDS011;11821;51.456;8.844;2022-09-09T03:52:38;5.30;;;1.70;;
23304;SDS011;11821;51.456;8.844;2022-09-09T03:55:12;2.25;;;1.45;;
23304;SDS011;11821;51.456;8.844;2022-09-09T03:57:39;3.72;;;1.58;;
23304;SDS011;11821;51.456;8.844;2022-09-09T04:00:08;3.38;;;1.50;;
23304;SDS011;11821;51.456;8.844;2022-09-09T04:02:49;3.92;;;1.63;;
23304;SDS011;11821;51.456;8.844;2022-09-09T04:05:16;3.45;;;1.60;;
23304;SDS011;11821;51.456;8.844;2022-09-09T04:07:44;3.13;;;1.60;;
23304;SDS011;11821;51.456;8.844;2022-09-09T04:10:11;2.20;;;1.20;;
23304;SDS011;11821;51.456;8.844;2022-09-09T04:12:39;2.17;;;1.10;;
23304;SDS011;11821;51.456;8.844;2022-09-09T04:15:05;1.42;;;1.27;;
23304;SDS011;11821;51.456;8.844;2022-09-09T04:17:34;2.88;;;1.27;;
23304;SDS011;11821;51.456;8.844;2022-09-09T04:20:02;3.78;;;1.40;;
23304;SDS011;11821;51.456;8.844;2022-09-09T04:22:28;1.85;;;1.35;;
23304;SDS011;11821;51.456;8.844;2022-09-09T04:24:55;3.47;;;1.40;;
23304;SDS011;11821;51.456;8.844;2022-09-09T04:27:22;3.88;;;1.25;;
23304;SDS011;11821;51.456;8.844;2022-09-09T04:29:49;2.25;;;1.33;;
23304;SDS011;11821;51.456;8.844;2022-09-09T04:32:15;3.85;;;1.30;;
23304;SDS011;11821;51.456;8.844;2022-09-09T04:34:42;4.78;;;1.45;;
23304;SDS011;11821;51.456;8.844;2022-09-09T04:37:09;2.67;;;1.63;;
23304;SDS011;11821;51.456;8.844;2022-09-09T04:39:36;7.38;;;1.80;;
23304;SDS011;11821;51.456;8.844;2022-09-09T04:42:03;4.32;;;1.30;;
23304;SDS011;11821;51.456;8.844;2022-09-09T04:44:33;1.48;;;1.17;;
23304;SDS011;11821;51.456;8.844;2022-09-09T04:46:59;4.53;;;1.40;;
23304;SDS011;11821;51.456;8.844;2022-09-09T04:49:25;0.60;;;0.60;;
23304;SDS011;11821;51.456;8.844;2022-09-09T04:51:52;1.83;;;1.25;;
23304;SDS011;11821;51.456;8.844;2022-09-09T04:54:19;3.25;;;1.52;;
23304;SDS011;11821;51.456;8.844;2022-09-09T04:56:46;2.40;;;1.40;;
23304;SDS011;11821;51.456;8.844;2022-09-09T04:59:12;1.60;;;1.08;;
23304;SDS011;11821;51.456;8.844;2022-09-09T05:01:45;3.70;;;1.20;;
23304;SDS011;11821;51.456;8.844;2022-09-09T05:04:11;3.80;;;1.20;;
23304;SDS011;11821;51.456;8.844;2022-09-09T05:06:37;2.05;;;1.40;;
23304;SDS011;11821;51.456;8.844;2022-09-09T05:09:04;3.00;;;1.30;;
23304;SDS011;11821;51.456;8.844;2022-09-09T05:11:31;2.88;;;1.40;;
23304;SDS011;11821;51.456;8.844;2022-09-09T05:14:10;4.20;;;1.88;;
23304;SDS011;11821;51.456;8.844;2022-09-09T05:16:37;7.80;;;2.05;;
23304;SDS011;11821;51.456;8.844;2022-09-09T05:19:03;2.03;;;1.15;;
23304;SDS011;11821;51.456;8.844;2022-09-09T05:21:41;2.00;;;1.30;;
23304;SDS011;11821;51.456;8.844;2022-09-09T05:24:07;6.22;;;1.83;;
23304;SDS011;11821;51.456;8.844;2022-09-09T05:26:34;4.40;;;1.48;;
23304;SDS011;11821;51.456;8.844;2022-09-09T05:29:02;4.57;;;1.90;;
23304;SDS011;11821;51.456;8.844;2022-09-09T05:31:30;1.48;;;1.38;;
23304;SDS011;11821;51.456;8.844;2022-09-09T05:33:58;2.80;;;1.60;;
23304;SDS011;11821;51.456;8.844;2022-09-09T05:36:25;2.15;;;1.05;;
23304;SDS011;11821;51.456;8.844;2022-09-09T05:38:55;3.42;;;1.40;;
23304;SDS011;11821;51.456;8.844;2022-09-09T05:41:23;3.10;;;1.63;;
23304;SDS011;11821;51.456;8.844;2022-09-09T05:43:51;4.57;;;1.50;;
23304;SDS011;11821;51.456;8.844;2022-09-09T05:46:20;4.50;;;2.22;;
23304;SDS011;11821;51.456;8.844;2022-09-09T05:48:50;3.38;;;1.77;;
23304;SDS011;11821;51.456;8.844;2022-09-09T05:51:20;6.28;;;1.60;;
23304;SDS011;11821;51.456;8.844;2022-09-09T05:53:51;3.40;;;2.03;;
23304;SDS011;11821;51.456;8.844;2022-09-09T05:56:19;7.63;;;1.90;;
23304;SDS011;11821;51.456;8.844;2022-09-09T05:58:58;5.20;;;2.05;;
23304;SDS011;11821;51.456;8.844;2022-09-09T06:01:31;1.83;;;1.40;;
23304;SDS011;11821;51.456;8.844;2022-09-09T06:03:59;1.88;;;1.58;;
23304;SDS011;11821;51.456;8.844;2022-09-09T06:06:26;3.28;;;1.42;;
23304;SDS011;11821;51.456;8.844;2022-09-09T06:08:57;5.00;;;1.88;;
23304;SDS011;11821;51.456;8.844;2022-09-09T06:11:27;3.80;;;1.48;;
23304;SDS011;11821;51.456;8.844;2022-09-09T06:13:59;5.15;;;1.90;;
23304;SDS011;11821;51.456;8.844;2022-09-09T06:16:27;5.85;;;1.90;;
23304;SDS011;11821;51.456;8.844;2022-09-09T06:18:55;5.70;;;2.25;;
23304;SDS011;11821;51.456;8.844;2022-09-09T06:21:24;2.88;;;1.80;;
23304;SDS011;11821;51.456;8.844;2022-09-09T06:23:56;2.10;;;1.60;;
23304;SDS011;11821;51.456;8.844;2022-09-09T06:26:26;2.05;;;1.58;;
23304;SDS011;11821;51.456;8.844;2022-09-09T06:28:57;4.18;;;1.67;;
23304;SDS011;11821;51.456;8.844;2022-09-09T06:31:26;2.35;;;1.30;;
23304;SDS011;11821;51.456;8.844;2022-09-09T06:33:57;4.20;;;1.83;;
23304;SDS011;11821;51.456;8.844;2022-09-09T06:36:31;2.97;;;1.95;;
23304;SDS011;11821;51.456;8.844;2022-09-09T06:38:59;5.50;;;2.38;;
23304;SDS011;11821;51.456;8.844;2022-09-09T06:41:27;3.05;;;1.67;;
23304;SDS011;11821;51.456;8.844;2022-09-09T06:43:56;2.33;;;2.00;;
23304;SDS011;11821;51.456;8.844;2022-09-09T06:46:30;2.05;;;1.60;;
23304;SDS011;11821;51.456;8.844;2022-09-09T06:48:59;3.72;;;2.00;;
23304;SDS011;11821;51.456;8.844;2022-09-09T06:51:29;5.00;;;1.83;;
23304;SDS011;11821;51.456;8.844;2022-09-09T06:53:58;2.88;;;1.92;;
23304;SDS011;11821;51.456;8.844;2022-09-09T06:56:26;2.22;;;1.40;;
23304;SDS011;11821;51.456;8.844;2022-09-09T06:58:55;2.90;;;1.75;;
23304;SDS011;11821;51.456;8.844;2022-09-09T07:01:27;4.82;;;1.90;;
23304;SDS011;11821;51.456;8.844;2022-09-09T07:03:58;3.35;;;1.70;;
23304;SDS011;11821;51.456;8.844;2022-09-09T07:06:27;4.13;;;2.17;;
23304;SDS011;11821;51.456;8.844;2022-09-09T07:08:58;5.90;;;2.60;;
23304;SDS011;11821;51.456;8.844;2022-09-09T07:11:28;5.72;;;2.30;;
23304;SDS011;11821;51.456;8.844;2022-09-09T07:13:58;4.53;;;1.92;;
23304;SDS011;11821;51.456;8.844;2022-09-09T07:16:25;2.80;;;2.03;;
23304;SDS011;11821;51.456;8.844;2022-09-09T07:18:54;9.00;;;2.20;;
23304;SDS011;11821;51.456;8.844;2022-09-09T07:21:25;4.68;;;1.60;;
23304;SDS011;11821;51.456;8.844;2022-09-09T07:23:59;3.53;;;2.13;;
23304;SDS011;11821;51.456;8.844;2022-09-09T07:26:30;3.00;;;1.50;;
23304;SDS011;11821;51.456;8.844;2022-09-09T07:28:58;3.08;;;1.38;;
23304;SDS011;11821;51.456;8.844;2022-09-09T07:31:26;2.55;;;1.35;;
23304;SDS011;11821;51.456;8.844;2022-09-09T07:33:56;2.90;;;1.48;;
23304;SDS011;11821;51.456;8.844;2022-09-09T07:36:23;3.50;;;1.42;;
23304;SDS011;11821;51.456;8.844;2022-09-09T07:38:53;4.43;;;1.27;;
23304;SDS011;11821;51.456;8.844;2022-09-09T07:41:27;5.03;;;1.20;;
23304;SDS011;11821;51.456;8.844;2022-09-09T07:43:58;6.15;;;1.27;;
23304;SDS011;11821;51.456;8.844;2022-09-09T07:46:25;4.45;;;1.48;;
23304;SDS011;11821;51.456;8.844;2022-09-09T07:48:53;4.45;;;1.35;;
23304;SDS011;11821;51.456;8.844;2022-09-09T07:51:26;5.07;;;1.00;;
23304;SDS011;11821;51.456;8.844;2022-09-09T07:53:55;2.65;;;0.80;;
23304;SDS011;11821;51.456;8.844;2022-09-09T07:56:24;5.55;;;1.33;;
23304;SDS011;11821;51.456;8.844;2022-09-09T07:58:52;2.72;;;0.82;;
23304;SDS011;11821;51.456;8.844;2022-09-09T08:01:28;6.30;;;1.00;;
23304;SDS011;11821;51.456;8.844;2022-09-09T08:04:00;2.45;;;0.88;;
23304;SDS011;11821;51.456;8.844;2022-09-09T08:06:30;2.20;;;0.80;;
23304;SDS011;11821;51.456;8.844;2022-09-09T08:09:02;2.85;;;1.02;;
23304;SDS011;11821;51.456;8.844;2022-09-09T08:11:30;3.03;;;0.80;;
23304;SDS011;11821;51.456;8.844;2022-09-09T08:13:58;2.45;;;1.00;;
23304;SDS011;11821;51.456;8.844;2022-09-09T08:16:26;2.92;;;0.77;;
23304;SDS011;11821;51.456;8.844;2022-09-09T08:18:56;4.43;;;1.02;;
23304;SDS011;11821;51.456;8.844;2022-09-09T08:21:24;4.82;;;1.00;;
23304;SDS011;11821;51.456;8.844;2022-09-09T08:23:58;3.40;;;0.80;;
23304;SDS011;11821;51.456;8.844;2022-09-09T08:26:33;5.28;;;1.63;;
23304;SDS011;11821;51.456;8.844;2022-09-09T08:29:06;4.53;;;1.27;;
23304;SDS011;11821;51.456;8.844;2022-09-09T08:31:34;3.03;;;0.90;;
23304;SDS011;11821;51.456;8.844;2022-09-09T08:34:05;1.80;;;0.70;;
23304;SDS011;11821;51.456;8.844;2022-09-09T08:36:34;4.80;;;0.90;;
23304;SDS011;11821;51.456;8.844;2022-09-09T08:39:03;3.97;;;0.95;;
23304;SDS011;11821;51.456;8.844;2022-09-09T08:53:26;2.42;;;0.90;;
23304;SDS011;11821;51.456;8.844;2022-09-09T08:55:58;4.00;;;0.95;;
23304;SDS011;11821;51.456;8.844;2022-09-09T08:58:38;2.33;;;0.80;;
23304;SDS011;11821;51.456;8.844;2022-09-09T09:01:16;3.67;;;0.70;;
23304;SDS011;11821;51.456;8.844;2022-09-09T09:06:59;2.33;;;0.73;;
23304;SDS011;11821;51.456;8.844;2022-09-09T09:09:42;3.58;;;0.95;;
23304;SDS011;11821;51.456;8.844;2022-09-09T09:12:20;2.85;;;0.90;;
23304;SDS011;11821;51.456;8.844;2022-09-09T09:14:50;2.15;;;0.82;;
23304;SDS011;11821;51.456;8.844;2022-09-09T09:17:21;2.45;;;0.98;;
23304;SDS011;11821;51.456;8.844;2022-09-09T09:19:51;2.92;;;1.00;;
23304;SDS011;11821;51.456;8.844;2022-09-09T09:22:21;4.40;;;1.00;;
23304;SDS011;11821;51.456;8.844;2022-09-09T09:25:08;4.03;;;0.90;;
23304;SDS011;11821;51.456;8.844;2022-09-09T09:28:02;3.22;;;1.00;;
23304;SDS011;11821;51.456;8.844;2022-09-09T09:35:52;2.42;;;0.80;;
23304;SDS011;11821;51.456;8.844;2022-09-09T09:38:21;1.88;;;0.70;;
23304;SDS011;11821;51.456;8.844;2022-09-09T09:40:58;3.38;;;0.70;;
23304;SDS011;11821;51.456;8.844;2022-09-09T09:45:54;4.50;;;1.05;;
23304;SDS011;11821;51.456;8.844;2022-09-09T09:48:23;3.38;;;1.05;;
23304;SDS011;11821;51.456;8.844;2022-09-09T09:50:51;3.60;;;0.90;;
23304;SDS011;11821;51.456;8.844;2022-09-09T09:53:22;2.00;;;0.70;;
23304;SDS011;11821;51.456;8.844;2022-09-09T09:58:32;2.35;;;0.70;;
23304;SDS011;11821;51.456;8.844;2022-09-09T10:01:02;2.42;;;0.70;;
23304;SDS011;11821;51.456;8.844;2022-09-09T10:03:31;2.45;;;0.70;;
23304;SDS011;11821;51.456;8.844;2022-09-09T10:06:03;4.38;;;1.23;;
23304;SDS011;11821;51.456;8.844;2022-09-09T10:08:32;1.85;;;0.85;;
23304;SDS011;11821;51.456;8.844;2022-09-09T10:14:02;6.00;;;0.88;;
23304;SDS011;11821;51.456;8.844;2022-09-09T10:19:33;1.92;;;0.77;;
23304;SDS011;11821;51.456;8.844;2022-09-09T10:24:52;2.67;;;0.82;;
23304;SDS011;11821;51.456;8.844;2022-09-09T10:30:16;3.05;;;1.08;;
23304;SDS011;11821;51.456;8.844;2022-09-09T10:49:53;3.30;;;1.35;;
23304;SDS011;11821;51.456;8.844;2022-09-09T10:57:50;2.47;;;0.80;;
23304;SDS011;11821;51.456;8.844;2022-09-09T11:03:18;2.22;;;0.82;;
23304;SDS011;11821;51.456;8.844;2022-09-09T11:05:56;5.03;;;1.10;;
23304;SDS011;11821;51.456;8.844;2022-09-09T11:08:30;2.00;;;0.50;;
23304;SDS011;11821;51.456;8.844;2022-09-09T11:11:04;2.92;;;0.85;;
23304;SDS011;11821;51.456;8.844;2022-09-09T11:13:41;3.35;;;1.08;;
23304;SDS011;11821;51.456;8.844;2022-09-09T11:19:14;3.90;;;1.30;;
23304;SDS011;11821;51.456;8.844;2022-09-09T11:21:44;5.22;;;0.80;;
23304;SDS011;11821;51.456;8.844;2022-09-09T11:24:15;4.35;;;0.88;;
23304;SDS011;11821;51.456;8.844;2022-09-09T11:27:02;1.08;;;0.55;;
23304;SDS011;11821;51.456;8.844;2022-09-09T11:29:37;3.30;;;0.68;;
23304;SDS011;11821;51.456;8.844;2022-09-09T11:32:20;2.00;;;0.60;;
23304;SDS011;11821;51.456;8.844;2022-09-09T11:40:24;2.83;;;1.13;;
23304;SDS011;11821;51.456;8.844;2022-09-09T11:45:38;2.30;;;0.85;;
23304;SDS011;11821;51.456;8.844;2022-09-09T11:48:27;2.15;;;0.90;;
23304;SDS011;11821;51.456;8.844;2022-09-09T11:53:55;6.85;;;1.20;;
23304;SDS011;11821;51.456;8.844;2022-09-09T11:56:25;3.03;;;1.00;;
23304;SDS011;11821;51.456;8.844;2022-09-09T11:59:16;3.05;;;0.90;;
23304;SDS011;11821;51.456;8.844;2022-09-09T12:01:53;2.38;;;0.68;;
23304;SDS011;11821;51.456;8.844;2022-09-09T12:09:36;1.58;;;0.70;;
23304;SDS011;11821;51.456;8.844;2022-09-09T12:14:54;2.45;;;0.65;;
23304;SDS011;11821;51.456;8.844;2022-09-09T12:20:20;4.55;;;0.60;;
23304;SDS011;11821;51.456;8.844;2022-09-09T12:31:50;1.60;;;0.55;;
23304;SDS011;11821;51.456;8.844;2022-09-09T12:37:35;1.88;;;0.43;;
23304;SDS011;11821;51.456;8.844;2022-09-09T12:40:05;2.00;;;0.70;;
23304;SDS011;11821;51.456;8.844;2022-09-09T12:42:44;1.80;;;0.60;;
23304;SDS011;11821;51.456;8.844;2022-09-09T12:45:26;1.63;;;0.50;;
23304;SDS011;11821;51.456;8.844;2022-09-09T12:48:00;2.67;;;0.60;;
23304;SDS011;11821;51.456;8.844;2022-09-09T12:50:37;1.17;;;0.50;;
23304;SDS011;11821;51.456;8.844;2022-09-09T12:53:12;2.08;;;0.80;;
23304;SDS011;11821;51.456;8.844;2022-09-09T12:56:04;1.02;;;0.45;;
23304;SDS011;11821;51.456;8.844;2022-09-09T12:58:33;2.00;;;0.77;;
23304;SDS011;11821;51.456;8.844;2022-09-09T13:01:02;1.35;;;0.60;;
23304;SDS011;11821;51.456;8.844;2022-09-09T13:03:31;1.73;;;0.70;;
23304;SDS011;11821;51.456;8.844;2022-09-09T13:06:09;2.05;;;0.68;;
23304;SDS011;11821;51.456;8.844;2022-09-09T13:08:38;2.22;;;0.70;;
23304;SDS011;11821;51.456;8.844;2022-09-09T13:11:06;1.75;;;0.75;;
23304;SDS011;11821;51.456;8.844;2022-09-09T13:13:39;2.30;;;0.88;;
23304;SDS011;11821;51.456;8.844;2022-09-09T13:16:18;1.48;;;0.80;;
23304;SDS011;11821;51.456;8.844;2022-09-09T13:19:09;2.13;;;0.70;;
23304;SDS011;11821;51.456;8.844;2022-09-09T13:21:41;1.00;;;0.30;;
23304;SDS011;11821;51.456;8.844;2022-09-09T13:27:01;2.05;;;0.40;;
23304;SDS011;11821;51.456;8.844;2022-09-09T13:29:32;2.22;;;0.80;;
23304;SDS011;11821;51.456;8.844;2022-09-09T13:32:06;1.88;;;0.68;;
23304;SDS011;11821;51.456;8.844;2022-09-09T13:34:49;2.92;;;0.70;;
23304;SDS011;11821;51.456;8.844;2022-09-09T13:40:17;1.25;;;0.50;;
23304;SDS011;11821;51.456;8.844;2022-09-09T13:42:52;1.80;;;0.50;;
23304;SDS011;11821;51.456;8.844;2022-09-09T13:45:22;2.47;;;0.65;;
23304;SDS011;11821;51.456;8.844;2022-09-09T13:47:52;4.45;;;0.80;;
23304;SDS011;11821;51.456;8.844;2022-09-09T13:52:51;1.52;;;0.80;;
23304;SDS011;11821;51.456;8.844;2022-09-09T13:55:22;2.78;;;0.70;;
23304;SDS011;11821;51.456;8.844;2022-09-09T13:57:56;4.20;;;1.05;;
23304;SDS011;11821;51.456;8.844;2022-09-09T14:00:27;2.78;;;0.80;;
23304;SDS011;11821;51.456;8.844;2022-09-09T14:02:56;5.50;;;0.60;;
23304;SDS011;11821;51.456;8.844;2022-09-09T14:05:22;5.18;;;1.10;;
23304;SDS011;11821;51.456;8.844;2022-09-09T14:07:49;3.53;;;0.75;;
23304;SDS011;11821;51.456;8.844;2022-09-09T14:10:15;1.95;;;0.85;;
23304;SDS011;11821;51.456;8.844;2022-09-09T14:12:42;2.38;;;0.80;;
23304;SDS011;11821;51.456;8.844;2022-09-09T14:15:09;2.40;;;0.80;;
23304;SDS011;11821;51.456;8.844;2022-09-09T14:17:37;1.77;;;0.60;;
23304;SDS011;11821;51.456;8.844;2022-09-09T14:20:04;2.55;;;0.85;;
23304;SDS011;11821;51.456;8.844;2022-09-09T14:22:37;2.15;;;0.80;;
23304;SDS011;11821;51.456;8.844;2022-09-09T14:25:04;2.65;;;0.63;;
23304;SDS011;11821;51.456;8.844;2022-09-09T14:27:31;4.60;;;0.98;;
23304;SDS011;11821;51.456;8.844;2022-09-09T14:29:58;2.28;;;0.90;;
23304;SDS011;11821;51.456;8.844;2022-09-09T14:32:26;3.05;;;0.88;;
23304;SDS011;11821;51.456;8.844;2022-09-09T14:34:53;2.45;;;0.70;;
23304;SDS011;11821;51.456;8.844;2022-09-09T14:37:21;3.70;;;0.80;;
23304;SDS011;11821;51.456;8.844;2022-09-09T14:39:50;3.63;;;0.70;;
23304;SDS011;11821;51.456;8.844;2022-09-09T14:42:16;3.13;;;0.80;;
23304;SDS011;11821;51.456;8.844;2022-09-09T14:44:44;1.95;;;0.68;;
23304;SDS011;11821;51.456;8.844;2022-09-09T14:47:10;1.70;;;0.70;;
23304;SDS011;11821;51.456;8.844;2022-09-09T14:49:37;2.65;;;0.70;;
23304;SDS011;11821;51.456;8.844;2022-09-09T14:52:04;1.58;;;0.70;;
23304;SDS011;11821;51.456;8.844;2022-09-09T14:54:31;3.08;;;0.98;;
23304;SDS011;11821;51.456;8.844;2022-09-09T14:56:57;2.83;;;0.82;;
23304;SDS011;11821;51.456;8.844;2022-09-09T14:59:24;4.63;;;1.05;;
23304;SDS011;11821;51.456;8.844;2022-09-09T15:02:09;4.53;;;1.13;;
23304;SDS011;11821;51.456;8.844;2022-09-09T15:04:35;2.50;;;0.90;;
23304;SDS011;11821;51.456;8.844;2022-09-09T15:07:01;2.05;;;0.57;;
23304;SDS011;11821;51.456;8.844;2022-09-09T15:09:28;1.80;;;0.65;;
23304;SDS011;11821;51.456;8.844;2022-09-09T15:11:54;3.45;;;0.60;;
23304;SDS011;11821;51.456;8.844;2022-09-09T15:14:21;2.95;;;0.88;;
23304;SDS011;11821;51.456;8.844;2022-09-09T15:16:47;2.58;;;1.00;;
23304;SDS011;11821;51.456;8.844;2022-09-09T15:19:13;2.45;;;0.80;;
23304;SDS011;11821;51.456;8.844;2022-09-09T15:21:39;1.85;;;0.80;;
23304;SDS011;11821;51.456;8.844;2022-09-09T15:24:05;5.82;;;1.17;;
23304;SDS011;11821;51.456;8.844;2022-09-09T15:26:33;1.67;;;0.57;;
23304;SDS011;11821;51.456;8.844;2022-09-09T15:29:00;2.20;;;0.80;;
23304;SDS011;11821;51.456;8.844;2022-09-09T15:31:28;3.30;;;0.75;;
23304;SDS011;11821;51.456;8.844;2022-09-09T15:33:56;1.02;;;0.65;;
23304;SDS011;11821;51.456;8.844;2022-09-09T15:36:31;1.02;;;0.50;;
23304;SDS011;11821;51.456;8.844;2022-09-09T15:39:05;2.50;;;0.70;;
23304;SDS011;11821;51.456;8.844;2022-09-09T15:41:38;2.70;;;0.60;;
23304;SDS011;11821;51.456;8.844;2022-09-09T15:44:05;1.83;;;0.75;;
23304;SDS011;11821;51.456;8.844;2022-09-09T15:46:32;2.60;;;0.73;;
23304;SDS011;11821;51.456;8.844;2022-09-09T15:49:13;3.30;;;0.85;;
23304;SDS011;11821;51.456;8.844;2022-09-09T15:51:41;1.85;;;0.80;;
23304;SDS011;11821;51.456;8.844;2022-09-09T15:54:10;1.98;;;0.82;;
23304;SDS011;11821;51.456;8.844;2022-09-09T15:56:37;3.25;;;0.90;;
23304;SDS011;11821;51.456;8.844;2022-09-09T15:59:04;2.50;;;0.70;;
23304;SDS011;11821;51.456;8.844;2022-09-09T16:01:30;2.13;;;0.70;;
23304;SDS011;11821;51.456;8.844;2022-09-09T16:03:57;2.90;;;0.70;;
23304;SDS011;11821;51.456;8.844;2022-09-09T16:06:25;1.80;;;0.70;;
23304;SDS011;11821;51.456;8.844;2022-09-09T16:08:54;4.22;;;0.82;;
23304;SDS011;11821;51.456;8.844;2022-09-09T16:11:22;2.55;;;0.65;;
23304;SDS011;11821;51.456;8.844;2022-09-09T16:13:53;2.70;;;0.70;;
23304;SDS011;11821;51.456;8.844;2022-09-09T16:16:23;5.22;;;0.90;;
23304;SDS011;11821;51.456;8.844;2022-09-09T16:18:55;3.42;;;0.80;;
23304;SDS011;11821;51.456;8.844;2022-09-09T16:21:33;3.50;;;0.90;;
23304;SDS011;11821;51.456;8.844;2022-09-09T16:24:01;2.65;;;0.80;;
23304;SDS011;11821;51.456;8.844;2022-09-09T16:26:29;3.17;;;0.85;;
23304;SDS011;11821;51.456;8.844;2022-09-09T16:28:57;3.08;;;0.70;;
23304;SDS011;11821;51.456;8.844;2022-09-09T16:31:24;2.58;;;0.75;;
23304;SDS011;11821;51.456;8.844;2022-09-09T16:33:52;2.70;;;1.00;;
23304;SDS011;11821;51.456;8.844;2022-09-09T16:36:20;2.38;;;0.70;;
23304;SDS011;11821;51.456;8.844;2022-09-09T16:38:51;2.03;;;0.80;;
23304;SDS011;11821;51.456;8.844;2022-09-09T16:41:19;1.80;;;0.73;;
23304;SDS011;11821;51.456;8.844;2022-09-09T16:43:45;2.30;;;0.70;;
23304;SDS011;11821;51.456;8.844;2022-09-09T16:46:16;1.70;;;0.82;;
23304;SDS011;11821;51.456;8.844;2022-09-09T16:48:44;1.38;;;0.60;;
23304;SDS011;11821;51.456;8.844;2022-09-09T16:51:13;1.98;;;0.80;;
23304;SDS011;11821;51.456;8.844;2022-09-09T16:53:41;2.35;;;0.90;;
23304;SDS011;11821;51.456;8.844;2022-09-09T16:56:09;1.95;;;0.90;;
23304;SDS011;11821;51.456;8.844;2022-09-09T16:58:40;2.78;;;1.38;;
23304;SDS011;11821;51.456;8.844;2022-09-09T17:01:08;2.03;;;0.95;;
23304;SDS011;11821;51.456;8.844;2022-09-09T17:03:35;3.53;;;1.02;;
23304;SDS011;11821;51.456;8.844;2022-09-09T17:06:03;2.17;;;0.80;;
23304;SDS011;11821;51.456;8.844;2022-09-09T17:08:33;2.67;;;0.88;;
23304;SDS011;11821;51.456;8.844;2022-09-09T17:11:00;2.38;;;0.80;;
23304;SDS011;11821;51.456;8.844;2022-09-09T17:13:26;2.53;;;0.65;;
23304;SDS011;11821;51.456;8.844;2022-09-09T17:15:52;2.28;;;0.73;;
23304;SDS011;11821;51.456;8.844;2022-09-09T17:18:18;3.35;;;0.95;;
23304;SDS011;11821;51.456;8.844;2022-09-09T17:20:44;3.08;;;0.95;;
23304;SDS011;11821;51.456;8.844;2022-09-09T17:25:57;1.50;;;0.50;;
23304;SDS011;11821;51.456;8.844;2022-09-09T17:28:30;1.15;;;0.47;;
23304;SDS011;11821;51.456;8.844;2022-09-09T17:31:06;1.85;;;0.80;;
23304;SDS011;11821;51.456;8.844;2022-09-09T17:33:34;1.23;;;0.68;;
23304;SDS011;11821;51.456;8.844;2022-09-09T17:36:02;1.00;;;0.40;;
23304;SDS011;11821;51.456;8.844;2022-09-09T17:38:36;1.83;;;0.50;;
23304;SDS011;11821;51.456;8.844;2022-09-09T17:41:07;1.15;;;0.30;;
23304;SDS011;11821;51.456;8.844;2022-09-09T17:43:44;0.80;;;0.30;;